sensor_id;sensor_type;location;lat;lon;timestamp;pressure;altitude;pressure_sealevel;temperature;humidity
54236;BME280;40151;43.606;1.472;2023-01-20T00:02:07;98687.28;;;17.14;52.45
54236;BME280;40151;43.606;1.472;2023-01-20T00:04:32;98690.84;;;17.13;52.34
54236;BME280;40151;43.606;1.472;2023-01-20T00:06:57;98697.81;;;17.14;52.37
54236;BME280;40151;43.606;1.472;2023-01-20T00:09:23;98711.75;;;17.16;52.30
54236;BME280;40151;43.606;1.472;2023-01-20T00:11:48;98714.50;;;17.15;52.41
54236;BME280;40151;43.606;1.472;2023-01-20T00:14:14;98717.91;;;17.17;52.60
54236;BME280;40151;43.606;1.472;2023-01-20T00:16:40;98723.16;;;17.17;52.74
54236;BME280;40151;43.606;1.472;2023-01-20T00:19:05;98741.69;;;17.15;52.54
54236;BME280;40151;43.606;1.472;2023-01-20T00:21:32;98748.66;;;17.16;52.40
54236;BME280;40151;43.606;1.472;2023-01-20T00:23:59;98753.84;;;17.18;52.50
54236;BME280;40151;43.606;1.472;2023-01-20T00:26:25;98769.59;;;17.20;52.37
54236;BME280;40151;43.606;1.472;2023-01-20T00:28:54;98771.28;;;17.21;52.55
54236;BME280;40151;43.606;1.472;2023-01-20T00:31:27;98765.28;;;17.18;52.49
54236;BME280;40151;43.606;1.472;2023-01-20T00:33:55;98783.72;;;17.18;52.68
54236;BME280;40151;43.606;1.472;2023-01-20T00:36:21;98795.97;;;17.20;52.30
54236;BME280;40151;43.606;1.472;2023-01-20T00:38:48;98806.34;;;17.23;52.54
54236;BME280;40151;43.606;1.472;2023-01-20T00:41:14;98813.31;;;17.24;52.49
54236;BME280;40151;43.606;1.472;2023-01-20T00:43:40;98823.88;;;17.24;52.56
54236;BME280;40151;43.606;1.472;2023-01-20T00:46:06;98827.25;;;17.26;52.32
54236;BME280;40151;43.606;1.472;2023-01-20T00:48:33;98843.16;;;17.24;52.54
54236;BME280;40151;43.606;1.472;2023-01-20T00:50:58;98843.09;;;17.26;52.25
54236;BME280;40151;43.606;1.472;2023-01-20T00:53:24;98848.34;;;17.26;52.30
54236;BME280;40151;43.606;1.472;2023-01-20T00:55:49;98859.84;;;17.25;52.79
54236;BME280;40151;43.606;1.472;2023-01-20T00:58:15;98867.56;;;17.28;52.31
54236;BME280;40151;43.606;1.472;2023-01-20T01:00:41;98877.28;;;17.27;52.19
54236;BME280;40151;43.606;1.472;2023-01-20T01:03:06;98885.19;;;17.27;52.21
54236;BME280;40151;43.606;1.472;2023-01-20T01:05:32;98896.41;;;17.31;52.31
54236;BME280;40151;43.606;1.472;2023-01-20T01:07:58;98890.47;;;17.27;52.22
54236;BME280;40151;43.606;1.472;2023-01-20T01:10:23;98892.91;;;17.30;52.11
54236;BME280;40151;43.606;1.472;2023-01-20T01:12:48;98906.22;;;17.29;52.03
54236;BME280;40151;43.606;1.472;2023-01-20T01:15:14;98909.75;;;17.28;52.08
54236;BME280;40151;43.606;1.472;2023-01-20T01:17:41;98922.03;;;17.29;52.10
54236;BME280;40151;43.606;1.472;2023-01-20T01:20:09;98924.75;;;17.27;52.33
54236;BME280;40151;43.606;1.472;2023-01-20T01:22:35;98927.31;;;17.29;52.15
54236;BME280;40151;43.606;1.472;2023-01-20T01:25:00;98939.47;;;17.31;52.23
54236;BME280;40151;43.606;1.472;2023-01-20T01:27:27;98946.44;;;17.33;52.30
54236;BME280;40151;43.606;1.472;2023-01-20T01:29:52;98957.00;;;17.33;52.11
54236;BME280;40151;43.606;1.472;2023-01-20T01:32:18;98962.16;;;17.34;52.20
54236;BME280;40151;43.606;1.472;2023-01-20T01:34:44;98960.66;;;17.30;52.39
54236;BME280;40151;43.606;1.472;2023-01-20T01:37:10;98966.69;;;17.32;52.23
54236;BME280;40151;43.606;1.472;2023-01-20T01:39:35;98986.84;;;17.33;52.27
54236;BME280;40151;43.606;1.472;2023-01-20T01:42:01;98995.53;;;17.35;52.38
54236;BME280;40151;43.606;1.472;2023-01-20T01:44:26;98999.09;;;17.34;52.07
54236;BME280;40151;43.606;1.472;2023-01-20T01:46:54;99009.56;;;17.36;52.28
54236;BME280;40151;43.606;1.472;2023-01-20T01:49:28;99011.44;;;17.34;52.16
54236;BME280;40151;43.606;1.472;2023-01-20T01:52:00;99024.63;;;17.34;52.34
54236;BME280;40151;43.606;1.472;2023-01-20T01:54:31;99030.66;;;17.36;52.07
54236;BME280;40151;43.606;1.472;2023-01-20T01:56:58;99034.94;;;17.38;51.88
54236;BME280;40151;43.606;1.472;2023-01-20T01:59:24;99040.13;;;17.40;52.32
54236;BME280;40151;43.606;1.472;2023-01-20T02:01:51;99041.13;;;17.37;52.40
54236;BME280;40151;43.606;1.472;2023-01-20T02:04:22;99055.09;;;17.39;51.96
54236;BME280;40151;43.606;1.472;2023-01-20T02:06:50;99071.78;;;17.40;52.09
54236;BME280;40151;43.606;1.472;2023-01-20T02:09:16;99074.50;;;17.38;52.07
54236;BME280;40151;43.606;1.472;2023-01-20T02:11:45;99072.78;;;17.37;52.14
54236;BME280;40151;43.606;1.472;2023-01-20T02:14:22;99083.19;;;17.40;52.02
54236;BME280;40151;43.606;1.472;2023-01-20T02:27:35;99117.47;;;17.40;52.21
54236;BME280;40151;43.606;1.472;2023-01-20T02:35:42;99131.44;;;17.42;51.95
54236;BME280;40151;43.606;1.472;2023-01-20T02:38:15;99138.34;;;17.45;51.98
54236;BME280;40151;43.606;1.472;2023-01-20T02:43:21;99150.59;;;17.46;52.04
54236;BME280;40151;43.606;1.472;2023-01-20T02:46:13;99154.09;;;17.47;52.05
54236;BME280;40151;43.606;1.472;2023-01-20T02:51:15;99168.13;;;17.47;52.00
54236;BME280;40151;43.606;1.472;2023-01-20T02:53:54;99179.53;;;17.48;52.04
54236;BME280;40151;43.606;1.472;2023-01-20T02:56:24;99175.97;;;17.49;51.95
54236;BME280;40151;43.606;1.472;2023-01-20T02:58:55;99182.94;;;17.50;51.89
54236;BME280;40151;43.606;1.472;2023-01-20T03:01:51;99193.50;;;17.50;52.06
54236;BME280;40151;43.606;1.472;2023-01-20T03:04:18;99190.91;;;17.48;52.07
54236;BME280;40151;43.606;1.472;2023-01-20T03:06:49;99193.50;;;17.50;51.88
54236;BME280;40151;43.606;1.472;2023-01-20T03:09:20;99211.03;;;17.51;51.83
54236;BME280;40151;43.606;1.472;2023-01-20T03:11:51;99204.03;;;17.50;51.90
54236;BME280;40151;43.606;1.472;2023-01-20T03:14:19;99220.63;;;17.52;52.00
54236;BME280;40151;43.606;1.472;2023-01-20T03:16:44;99221.56;;;17.51;51.60
54236;BME280;40151;43.606;1.472;2023-01-20T03:19:13;99230.28;;;17.53;51.86
54236;BME280;40151;43.606;1.472;2023-01-20T03:21:39;99242.69;;;17.51;51.93
54236;BME280;40151;43.606;1.472;2023-01-20T03:24:05;99246.13;;;17.53;51.60
54236;BME280;40151;43.606;1.472;2023-01-20T03:26:31;99244.38;;;17.52;51.67
54236;BME280;40151;43.606;1.472;2023-01-20T03:28:57;99248.75;;;17.53;51.60
54236;BME280;40151;43.606;1.472;2023-01-20T03:31:26;99258.38;;;17.54;51.72
54236;BME280;40151;43.606;1.472;2023-01-20T03:33:55;99258.50;;;17.51;51.81
54236;BME280;40151;43.606;1.472;2023-01-20T03:36:23;99254.94;;;17.52;52.02
54236;BME280;40151;43.606;1.472;2023-01-20T03:38:50;99254.94;;;17.52;51.97
54236;BME280;40151;43.606;1.472;2023-01-20T03:41:29;99261.00;;;17.54;51.58
54236;BME280;40151;43.606;1.472;2023-01-20T03:44:13;99267.97;;;17.55;51.97
54236;BME280;40151;43.606;1.472;2023-01-20T03:46:52;99279.47;;;17.54;51.54
54236;BME280;40151;43.606;1.472;2023-01-20T03:49:35;99284.59;;;17.57;51.57
54236;BME280;40151;43.606;1.472;2023-01-20T03:52:08;99292.59;;;17.55;51.78
54236;BME280;40151;43.606;1.472;2023-01-20T03:54:42;99302.16;;;17.58;51.82
54236;BME280;40151;43.606;1.472;2023-01-20T03:57:15;99309.25;;;17.56;51.80
54236;BME280;40151;43.606;1.472;2023-01-20T03:59:43;99310.97;;;17.57;51.68
54236;BME280;40151;43.606;1.472;2023-01-20T04:02:10;99310.97;;;17.57;51.47
54236;BME280;40151;43.606;1.472;2023-01-20T04:04:38;99325.91;;;17.58;51.44
54236;BME280;40151;43.606;1.472;2023-01-20T04:07:07;99335.50;;;17.59;51.67
54236;BME280;40151;43.606;1.472;2023-01-20T04:09:37;99343.50;;;17.57;51.56
54236;BME280;40151;43.606;1.472;2023-01-20T04:12:03;99347.78;;;17.60;51.82
54236;BME280;40151;43.606;1.472;2023-01-20T04:14:28;99356.44;;;17.62;51.41
54236;BME280;40151;43.606;1.472;2023-01-20T04:16:56;99370.56;;;17.61;51.80
54236;BME280;40151;43.606;1.472;2023-01-20T04:19:22;99373.16;;;17.63;51.61
54236;BME280;40151;43.606;1.472;2023-01-20T04:21:52;99382.84;;;17.62;51.25
54236;BME280;40151;43.606;1.472;2023-01-20T04:24:24;99389.97;;;17.60;51.81
54236;BME280;40151;43.606;1.472;2023-01-20T04:26:51;99398.66;;;17.62;51.78
54236;BME280;40151;43.606;1.472;2023-01-20T04:29:17;99408.28;;;17.63;51.45
54236;BME280;40151;43.606;1.472;2023-01-20T04:31:42;99411.88;;;17.62;51.54
54236;BME280;40151;43.606;1.472;2023-01-20T04:34:11;99416.22;;;17.63;51.72
54236;BME280;40151;43.606;1.472;2023-01-20T04:36:37;99426.75;;;17.63;51.44
54236;BME280;40151;43.606;1.472;2023-01-20T04:39:02;99435.63;;;17.62;51.44
54236;BME280;40151;43.606;1.472;2023-01-20T04:41:28;99442.59;;;17.63;51.61
54236;BME280;40151;43.606;1.472;2023-01-20T04:43:53;99444.34;;;17.64;51.58
54236;BME280;40151;43.606;1.472;2023-01-20T04:46:18;99448.75;;;17.64;51.57
54236;BME280;40151;43.606;1.472;2023-01-20T04:48:44;99461.00;;;17.65;51.50
54236;BME280;40151;43.606;1.472;2023-01-20T04:51:11;99460.16;;;17.64;51.30
54236;BME280;40151;43.606;1.472;2023-01-20T04:53:36;99469.78;;;17.65;51.67
54236;BME280;40151;43.606;1.472;2023-01-20T04:56:02;99476.84;;;17.65;51.13
54236;BME280;40151;43.606;1.472;2023-01-20T04:58:28;99482.97;;;17.65;51.59
54236;BME280;40151;43.606;1.472;2023-01-20T05:00:53;99492.66;;;17.65;51.54
54236;BME280;40151;43.606;1.472;2023-01-20T05:03:18;99500.66;;;17.63;51.44
54236;BME280;40151;43.606;1.472;2023-01-20T05:05:51;99509.38;;;17.65;51.59
54236;BME280;40151;43.606;1.472;2023-01-20T05:08:17;99509.44;;;17.64;51.66
54236;BME280;40151;43.606;1.472;2023-01-20T05:10:42;99512.78;;;17.67;51.54
54236;BME280;40151;43.606;1.472;2023-01-20T05:13:07;99517.28;;;17.65;51.22
54236;BME280;40151;43.606;1.472;2023-01-20T05:15:33;99519.00;;;17.66;51.25
54236;BME280;40151;43.606;1.472;2023-01-20T05:17:58;99527.84;;;17.65;51.45
54236;BME280;40151;43.606;1.472;2023-01-20T05:20:24;99528.63;;;17.67;51.28
54236;BME280;40151;43.606;1.472;2023-01-20T05:22:49;99533.84;;;17.69;51.56
54236;BME280;40151;43.606;1.472;2023-01-20T05:25:14;99536.47;;;17.69;51.42
54236;BME280;40151;43.606;1.472;2023-01-20T05:27:40;99541.69;;;17.70;51.54
54236;BME280;40151;43.606;1.472;2023-01-20T05:30:06;99535.59;;;17.68;51.22
54236;BME280;40151;43.606;1.472;2023-01-20T05:32:32;99533.91;;;17.67;51.37
54236;BME280;40151;43.606;1.472;2023-01-20T05:34:57;99547.88;;;17.69;51.48
54236;BME280;40151;43.606;1.472;2023-01-20T05:37:23;99554.88;;;17.70;51.32
54236;BME280;40151;43.606;1.472;2023-01-20T05:39:48;99561.06;;;17.69;51.21
54236;BME280;40151;43.606;1.472;2023-01-20T05:42:14;99563.69;;;17.69;51.29
54236;BME280;40151;43.606;1.472;2023-01-20T05:44:40;99568.97;;;17.69;51.13
54236;BME280;40151;43.606;1.472;2023-01-20T05:47:05;99564.72;;;17.67;51.49
54236;BME280;40151;43.606;1.472;2023-01-20T05:49:30;99582.09;;;17.71;51.37
54236;BME280;40151;43.606;1.472;2023-01-20T05:51:56;99578.63;;;17.70;51.57
54236;BME280;40151;43.606;1.472;2023-01-20T05:54:21;99588.09;;;17.75;51.75
54236;BME280;40151;43.606;1.472;2023-01-20T05:56:47;99579.25;;;17.76;51.93
54236;BME280;40151;43.606;1.472;2023-01-20T05:59:13;99591.56;;;17.77;52.05
54236;BME280;40151;43.606;1.472;2023-01-20T06:01:38;99601.94;;;17.80;52.38
54236;BME280;40151;43.606;1.472;2023-01-20T06:04:05;99598.38;;;17.81;55.38
54236;BME280;40151;43.606;1.472;2023-01-20T06:06:30;99610.53;;;17.85;56.20
54236;BME280;40151;43.606;1.472;2023-01-20T06:08:56;99610.53;;;17.85;55.36
54236;BME280;40151;43.606;1.472;2023-01-20T06:11:21;99617.50;;;17.86;55.35
54236;BME280;40151;43.606;1.472;2023-01-20T06:13:47;99616.50;;;17.89;54.97
54236;BME280;40151;43.606;1.472;2023-01-20T06:16:12;99628.72;;;17.91;54.90
54236;BME280;40151;43.606;1.472;2023-01-20T06:18:38;99627.94;;;17.89;54.56
54236;BME280;40151;43.606;1.472;2023-01-20T06:21:04;99625.16;;;17.92;54.92
54236;BME280;40151;43.606;1.472;2023-01-20T06:23:29;99620.81;;;17.91;54.33
54236;BME280;40151;43.606;1.472;2023-01-20T06:26:03;99619.88;;;17.92;54.52
54236;BME280;40151;43.606;1.472;2023-01-20T06:28:29;99624.22;;;17.93;54.33
54236;BME280;40151;43.606;1.472;2023-01-20T06:31:05;99627.78;;;17.92;53.84
54236;BME280;40151;43.606;1.472;2023-01-20T06:33:32;99635.72;;;17.92;54.06
54236;BME280;40151;43.606;1.472;2023-01-20T06:35:57;99652.34;;;17.94;53.86
54236;BME280;40151;43.606;1.472;2023-01-20T06:38:24;99638.34;;;17.92;53.57
54236;BME280;40151;43.606;1.472;2023-01-20T06:40:56;99649.78;;;17.93;54.10
54236;BME280;40151;43.606;1.472;2023-01-20T06:43:23;99650.63;;;17.93;53.75
54236;BME280;40151;43.606;1.472;2023-01-20T06:45:48;99655.00;;;17.94;53.32
54236;BME280;40151;43.606;1.472;2023-01-20T06:48:14;99651.50;;;17.94;53.13
54236;BME280;40151;43.606;1.472;2023-01-20T06:50:39;99657.69;;;17.93;53.19
54236;BME280;40151;43.606;1.472;2023-01-20T06:53:04;99670.91;;;17.93;52.91
54236;BME280;40151;43.606;1.472;2023-01-20T06:55:30;99670.91;;;17.93;53.12
54236;BME280;40151;43.606;1.472;2023-01-20T06:57:55;99684.94;;;17.93;52.90
54236;BME280;40151;43.606;1.472;2023-01-20T07:00:21;99676.19;;;17.93;52.71
54236;BME280;40151;43.606;1.472;2023-01-20T07:02:47;99680.59;;;17.92;52.69
54236;BME280;40151;43.606;1.472;2023-01-20T07:05:13;99683.22;;;17.92;52.77
54236;BME280;40151;43.606;1.472;2023-01-20T07:07:39;99685.88;;;17.92;52.45
54236;BME280;40151;43.606;1.472;2023-01-20T07:10:04;99695.72;;;17.89;52.62
54236;BME280;40151;43.606;1.472;2023-01-20T07:12:30;99704.44;;;17.91;52.45
54236;BME280;40151;43.606;1.472;2023-01-20T07:14:55;99705.44;;;17.88;52.18
54236;BME280;40151;43.606;1.472;2023-01-20T07:17:21;99709.78;;;17.89;52.45
54236;BME280;40151;43.606;1.472;2023-01-20T07:19:46;99705.34;;;17.90;52.30
54236;BME280;40151;43.606;1.472;2023-01-20T07:22:12;99715.13;;;17.88;52.32
54236;BME280;40151;43.606;1.472;2023-01-20T07:24:37;99726.56;;;17.88;52.00
54236;BME280;40151;43.606;1.472;2023-01-20T07:27:02;99725.69;;;17.88;52.42
54236;BME280;40151;43.606;1.472;2023-01-20T07:29:28;99726.66;;;17.85;52.01
54236;BME280;40151;43.606;1.472;2023-01-20T07:31:53;99733.81;;;17.83;51.84
54236;BME280;40151;43.606;1.472;2023-01-20T07:34:19;99740.81;;;17.84;52.19
54236;BME280;40151;43.606;1.472;2023-01-20T07:36:44;99736.50;;;17.81;52.29
54236;BME280;40151;43.606;1.472;2023-01-20T07:39:10;99747.94;;;17.82;51.90
54236;BME280;40151;43.606;1.472;2023-01-20T07:41:37;99752.34;;;17.81;51.91
54236;BME280;40151;43.606;1.472;2023-01-20T07:44:02;99741.72;;;17.83;51.85
54236;BME280;40151;43.606;1.472;2023-01-20T07:46:28;99749.78;;;17.80;51.81
54236;BME280;40151;43.606;1.472;2023-01-20T07:48:54;99754.25;;;17.78;51.44
54236;BME280;40151;43.606;1.472;2023-01-20T07:51:20;99764.00;;;17.76;51.88
54236;BME280;40151;43.606;1.472;2023-01-20T07:53:47;99757.03;;;17.75;51.80
54236;BME280;40151;43.606;1.472;2023-01-20T07:56:21;99766.78;;;17.73;51.68
54236;BME280;40151;43.606;1.472;2023-01-20T07:58:47;99769.44;;;17.73;51.82
54236;BME280;40151;43.606;1.472;2023-01-20T08:01:28;99766.19;;;17.66;51.53
54236;BME280;40151;43.606;1.472;2023-01-20T08:03:55;99771.56;;;17.64;51.52
54236;BME280;40151;43.606;1.472;2023-01-20T08:06:22;99777.63;;;17.66;51.43
54236;BME280;40151;43.606;1.472;2023-01-20T08:08:48;99771.56;;;17.64;51.46
54236;BME280;40151;43.606;1.472;2023-01-20T08:11:16;99775.91;;;17.65;51.66
54236;BME280;40151;43.606;1.472;2023-01-20T08:13:42;99781.25;;;17.64;51.61
54236;BME280;40151;43.606;1.472;2023-01-20T08:16:10;99782.22;;;17.61;51.41
54236;BME280;40151;43.606;1.472;2023-01-20T08:18:36;99789.34;;;17.59;51.57
54236;BME280;40151;43.606;1.472;2023-01-20T08:21:04;99792.16;;;17.54;51.72
54236;BME280;40151;43.606;1.472;2023-01-20T08:23:34;99795.72;;;17.53;51.61
54236;BME280;40151;43.606;1.472;2023-01-20T08:26:02;99793.03;;;17.55;51.35
54236;BME280;40151;43.606;1.472;2023-01-20T08:28:28;99796.59;;;17.54;51.43
54236;BME280;40151;43.606;1.472;2023-01-20T08:31:01;99808.09;;;17.53;51.26
54236;BME280;40151;43.606;1.472;2023-01-20T08:33:26;99805.56;;;17.50;51.62
54236;BME280;40151;43.606;1.472;2023-01-20T08:35:52;99817.81;;;17.51;51.47
54236;BME280;40151;43.606;1.472;2023-01-20T08:38:17;99818.13;;;17.43;51.37
54236;BME280;40151;43.606;1.472;2023-01-20T08:40:43;99823.34;;;17.44;51.71
54236;BME280;40151;43.606;1.472;2023-01-20T08:43:08;99826.03;;;17.43;51.74
54236;BME280;40151;43.606;1.472;2023-01-20T08:45:33;99837.59;;;17.40;51.53
54236;BME280;40151;43.606;1.472;2023-01-20T08:47:59;99842.75;;;17.43;51.32
54236;BME280;40151;43.606;1.472;2023-01-20T08:50:24;99842.88;;;17.40;51.29
54236;BME280;40151;43.606;1.472;2023-01-20T08:52:50;99858.72;;;17.40;51.15
54236;BME280;40151;43.606;1.472;2023-01-20T08:55:15;99856.97;;;17.39;51.57
54236;BME280;40151;43.606;1.472;2023-01-20T08:57:40;99862.25;;;17.39;51.60
54236;BME280;40151;43.606;1.472;2023-01-20T09:00:07;99865.69;;;17.41;51.13
54236;BME280;40151;43.606;1.472;2023-01-20T09:02:34;99864.81;;;17.41;51.19
54236;BME280;40151;43.606;1.472;2023-01-20T09:05:02;99871.06;;;17.38;51.25
54236;BME280;40151;43.606;1.472;2023-01-20T09:07:27;99879.00;;;17.38;51.00
54236;BME280;40151;43.606;1.472;2023-01-20T09:09:53;99876.59;;;17.32;51.36
54236;BME280;40151;43.606;1.472;2023-01-20T09:12:18;99890.72;;;17.31;51.26
54236;BME280;40151;43.606;1.472;2023-01-20T09:14:44;99885.53;;;17.28;51.30
54236;BME280;40151;43.606;1.472;2023-01-20T09:17:09;99898.63;;;17.31;51.34
54236;BME280;40151;43.606;1.472;2023-01-20T09:19:34;99899.53;;;17.30;51.20
54236;BME280;40151;43.606;1.472;2023-01-20T09:22:00;99903.94;;;17.29;51.43
54236;BME280;40151;43.606;1.472;2023-01-20T09:24:27;99903.94;;;17.29;51.10
54236;BME280;40151;43.606;1.472;2023-01-20T09:26:52;99909.28;;;17.28;51.08
54236;BME280;40151;43.606;1.472;2023-01-20T09:29:19;99912.84;;;17.27;51.26
54236;BME280;40151;43.606;1.472;2023-01-20T09:34:15;99923.56;;;17.22;50.95
54236;BME280;40151;43.606;1.472;2023-01-20T09:36:44;99926.16;;;17.24;50.88
54236;BME280;40151;43.606;1.472;2023-01-20T09:39:12;99922.59;;;17.25;50.93
54236;BME280;40151;43.606;1.472;2023-01-20T09:42:00;99924.34;;;17.24;51.09
54236;BME280;40151;43.606;1.472;2023-01-20T09:45:07;99932.34;;;17.23;51.12
54236;BME280;40151;43.606;1.472;2023-01-20T09:47:36;99933.38;;;17.18;51.12
54236;BME280;40151;43.606;1.472;2023-01-20T09:56:00;99938.66;;;17.18;50.76
54236;BME280;40151;43.606;1.472;2023-01-20T10:01:20;99945.75;;;17.16;50.65
54236;BME280;40151;43.606;1.472;2023-01-20T10:09:03;99955.53;;;17.13;50.70
54236;BME280;40151;43.606;1.472;2023-01-20T10:11:42;99949.28;;;17.15;50.75
54236;BME280;40151;43.606;1.472;2023-01-20T10:19:37;99947.75;;;17.10;50.89
54236;BME280;40151;43.606;1.472;2023-01-20T10:22:14;99956.50;;;17.10;50.86
54236;BME280;40151;43.606;1.472;2023-01-20T10:24:56;99953.00;;;17.11;50.57
54236;BME280;40151;43.606;1.472;2023-01-20T10:27:25;99955.63;;;17.11;50.69
54236;BME280;40151;43.606;1.472;2023-01-20T10:29:56;99958.25;;;17.11;50.46
54236;BME280;40151;43.606;1.472;2023-01-20T10:32:29;99954.81;;;17.09;50.50
54236;BME280;40151;43.606;1.472;2023-01-20T10:35:01;99959.28;;;17.07;50.60
54236;BME280;40151;43.606;1.472;2023-01-20T10:37:29;99960.06;;;17.09;50.77
54236;BME280;40151;43.606;1.472;2023-01-20T10:40:24;99959.38;;;17.04;50.55
54236;BME280;40151;43.606;1.472;2023-01-20T10:42:56;99957.66;;;17.03;50.75
54236;BME280;40151;43.606;1.472;2023-01-20T10:53:34;99949.84;;;17.00;50.46
54236;BME280;40151;43.606;1.472;2023-01-20T10:58:55;99958.56;;;17.02;50.63
54236;BME280;40151;43.606;1.472;2023-01-20T11:01:23;99951.56;;;17.01;50.57
54236;BME280;40151;43.606;1.472;2023-01-20T11:03:49;99951.66;;;16.98;50.27
54236;BME280;40151;43.606;1.472;2023-01-20T11:06:21;99948.00;;;17.02;50.28
54236;BME280;40151;43.606;1.472;2023-01-20T11:08:49;99948.09;;;16.99;50.12
54236;BME280;40151;43.606;1.472;2023-01-20T11:11:23;99942.84;;;16.99;50.37
54236;BME280;40151;43.606;1.472;2023-01-20T11:13:50;99942.09;;;16.95;50.32
54236;BME280;40151;43.606;1.472;2023-01-20T11:16:22;99944.72;;;16.95;50.45
54236;BME280;40151;43.606;1.472;2023-01-20T11:19:00;99936.81;;;16.95;50.11
54236;BME280;40151;43.606;1.472;2023-01-20T11:21:29;99935.97;;;16.95;50.67
54236;BME280;40151;43.606;1.472;2023-01-20T11:23:56;99929.00;;;16.94;50.39
54236;BME280;40151;43.606;1.472;2023-01-20T11:26:32;99933.34;;;16.95;50.42
54236;BME280;40151;43.606;1.472;2023-01-20T11:29:02;99934.25;;;16.94;50.45
54236;BME280;40151;43.606;1.472;2023-01-20T11:31:47;99925.53;;;16.91;50.61
54236;BME280;40151;43.606;1.472;2023-01-20T11:34:25;99929.00;;;16.94;50.80
54236;BME280;40151;43.606;1.472;2023-01-20T11:39:33;99926.34;;;16.94;50.61
54236;BME280;40151;43.606;1.472;2023-01-20T11:44:43;99927.38;;;16.89;50.34
54236;BME280;40151;43.606;1.472;2023-01-20T11:49:45;99924.69;;;16.91;50.62
54236;BME280;40151;43.606;1.472;2023-01-20T11:52:20;99921.31;;;16.87;50.57
54236;BME280;40151;43.606;1.472;2023-01-20T11:54:46;99918.66;;;16.87;50.31
54236;BME280;40151;43.606;1.472;2023-01-20T11:57:15;99919.63;;;16.85;50.53
54236;BME280;40151;43.606;1.472;2023-01-20T11:59:48;99916.91;;;16.86;50.35
54236;BME280;40151;43.606;1.472;2023-01-20T12:09:51;99910.06;;;16.82;50.35
54236;BME280;40151;43.606;1.472;2023-01-20T12:12:39;99911.88;;;16.80;50.43
54236;BME280;40151;43.606;1.472;2023-01-20T12:15:15;99908.34;;;16.81;50.39
54236;BME280;40151;43.606;1.472;2023-01-20T12:20:33;99903.97;;;16.80;50.41
54236;BME280;40151;43.606;1.472;2023-01-20T12:23:21;99894.41;;;16.77;50.66
54236;BME280;40151;43.606;1.472;2023-01-20T12:28:20;99882.19;;;16.75;50.47
54236;BME280;40151;43.606;1.472;2023-01-20T12:30:54;99893.56;;;16.77;50.46
54236;BME280;40151;43.606;1.472;2023-01-20T12:33:34;99877.91;;;16.72;50.44
54236;BME280;40151;43.606;1.472;2023-01-20T12:44:27;99864.78;;;16.71;50.48
54236;BME280;40151;43.606;1.472;2023-01-20T12:55:46;99859.63;;;16.68;50.36
54236;BME280;40151;43.606;1.472;2023-01-20T13:04:10;99853.44;;;16.69;50.59
54236;BME280;40151;43.606;1.472;2023-01-20T13:12:00;99855.22;;;16.68;50.42
54236;BME280;40151;43.606;1.472;2023-01-20T13:14:32;99858.78;;;16.67;50.24
54236;BME280;40151;43.606;1.472;2023-01-20T13:19:44;99854.56;;;16.61;50.62
54236;BME280;40151;43.606;1.472;2023-01-20T13:22:21;99850.19;;;16.62;50.13
54236;BME280;40151;43.606;1.472;2023-01-20T13:24:54;99853.59;;;16.64;50.24
54236;BME280;40151;43.606;1.472;2023-01-20T13:27:35;99849.22;;;16.64;50.27
54236;BME280;40151;43.606;1.472;2023-01-20T13:30:05;99844.03;;;16.61;50.36
54236;BME280;40151;43.606;1.472;2023-01-20T13:37:58;99844.03;;;16.61;50.34
54236;BME280;40151;43.606;1.472;2023-01-20T13:45:46;99837.09;;;16.59;50.36
54236;BME280;40151;43.606;1.472;2023-01-20T13:50:41;99841.44;;;16.60;50.23
54236;BME280;40151;43.606;1.472;2023-01-20T13:53:22;99838.75;;;16.61;50.45
54236;BME280;40151;43.606;1.472;2023-01-20T13:55:50;99841.44;;;16.60;50.54
54236;BME280;40151;43.606;1.472;2023-01-20T13:58:29;99837.97;;;16.59;50.64
54236;BME280;40151;43.606;1.472;2023-01-20T14:01:01;99836.19;;;16.60;50.43
54236;BME280;40151;43.606;1.472;2023-01-20T14:03:32;99845.88;;;16.59;50.19
54236;BME280;40151;43.606;1.472;2023-01-20T14:06:14;99838.03;;;16.58;50.30
54236;BME280;40151;43.606;1.472;2023-01-20T14:08:46;99842.41;;;16.57;50.31
54236;BME280;40151;43.606;1.472;2023-01-20T14:11:12;99844.25;;;16.55;50.24
54236;BME280;40151;43.606;1.472;2023-01-20T14:13:39;99849.56;;;16.54;50.36
54236;BME280;40151;43.606;1.472;2023-01-20T14:16:15;99842.59;;;16.53;50.21
54236;BME280;40151;43.606;1.472;2023-01-20T14:18:41;99844.38;;;16.52;50.46
54236;BME280;40151;43.606;1.472;2023-01-20T14:21:26;99846.09;;;16.53;50.11
54236;BME280;40151;43.606;1.472;2023-01-20T14:23:52;99840.84;;;16.53;50.24
54236;BME280;40151;43.606;1.472;2023-01-20T14:26:24;99836.53;;;16.50;50.26
54236;BME280;40151;43.606;1.472;2023-01-20T14:28:55;99839.13;;;16.52;50.35
54236;BME280;40151;43.606;1.472;2023-01-20T14:33:59;99840.94;;;16.50;50.26
54236;BME280;40151;43.606;1.472;2023-01-20T14:36:28;99844.47;;;16.49;50.48
54236;BME280;40151;43.606;1.472;2023-01-20T14:38:56;99844.47;;;16.49;50.32
54236;BME280;40151;43.606;1.472;2023-01-20T14:41:28;99842.81;;;16.46;50.16
54236;BME280;40151;43.606;1.472;2023-01-20T14:43:54;99849.75;;;16.49;50.12
54236;BME280;40151;43.606;1.472;2023-01-20T14:46:20;99846.31;;;16.47;50.25
54236;BME280;40151;43.606;1.472;2023-01-20T14:48:46;99855.16;;;16.46;50.20
54236;BME280;40151;43.606;1.472;2023-01-20T14:51:12;99846.41;;;16.44;49.98
54236;BME280;40151;43.606;1.472;2023-01-20T14:53:38;99853.47;;;16.43;50.16
54236;BME280;40151;43.606;1.472;2023-01-20T14:56:05;99853.53;;;16.42;50.10
54236;BME280;40151;43.606;1.472;2023-01-20T14:58:32;99858.66;;;16.45;50.30
54236;BME280;40151;43.606;1.472;2023-01-20T15:01:03;99860.50;;;16.43;50.25
54236;BME280;40151;43.606;1.472;2023-01-20T15:03:29;99858.78;;;16.42;50.16
54236;BME280;40151;43.606;1.472;2023-01-20T15:05:57;99866.69;;;16.42;49.92
54236;BME280;40151;43.606;1.472;2023-01-20T15:08:47;99869.31;;;16.42;50.11
54236;BME280;40151;43.606;1.472;2023-01-20T15:13:41;99868.50;;;16.40;50.14